sensor_id;sensor_type;location;lat;lon;timestamp;temperature;humidity
46492;DHT22;32206;51.446;6.792;2022-10-16T00:01:21;14.80;99.90
46492;DHT22;32206;51.446;6.792;2022-10-16T00:03:48;15.10;99.90
46492;DHT22;32206;51.446;6.792;2022-10-16T00:06:15;15.00;99.90
46492;DHT22;32206;51.446;6.792;2022-10-16T00:08:41;14.70;99.90
46492;DHT22;32206;51.446;6.792;2022-10-16T00:11:08;14.70;99.90
46492;DHT22;32206;51.446;6.792;2022-10-16T00:13:35;14.70;99.90
46492;DHT22;32206;51.446;6.792;2022-10-16T00:16:01;14.70;99.90
46492;DHT22;32206;51.446;6.792;2022-10-16T00:18:28;14.80;99.90
46492;DHT22;32206;51.446;6.792;2022-10-16T00:20:54;14.70;99.90
46492;DHT22;32206;51.446;6.792;2022-10-16T00:23:20;14.60;99.90
46492;DHT22;32206;51.446;6.792;2022-10-16T00:25:57;14.60;99.90
46492;DHT22;32206;51.446;6.792;2022-10-16T00:28:23;14.60;99.90
46492;DHT22;32206;51.446;6.792;2022-10-16T00:30:49;14.60;99.90
46492;DHT22;32206;51.446;6.792;2022-10-16T00:33:15;14.60;99.90
46492;DHT22;32206;51.446;6.792;2022-10-16T00:35:40;14.60;99.90
46492;DHT22;32206;51.446;6.792;2022-10-16T00:38:06;14.60;99.90
46492;DHT22;32206;51.446;6.792;2022-10-16T00:40:31;14.50;99.90
46492;DHT22;32206;51.446;6.792;2022-10-16T00:42:57;14.50;99.90
46492;DHT22;32206;51.446;6.792;2022-10-16T00:45:23;14.50;99.90
46492;DHT22;32206;51.446;6.792;2022-10-16T00:47:50;14.50;99.90
46492;DHT22;32206;51.446;6.792;2022-10-16T00:50:30;14.60;99.90
46492;DHT22;32206;51.446;6.792;2022-10-16T00:52:57;14.50;99.90
46492;DHT22;32206;51.446;6.792;2022-10-16T00:55:25;14.50;99.90
46492;DHT22;32206;51.446;6.792;2022-10-16T00:57:51;14.60;99.90
46492;DHT22;32206;51.446;6.792;2022-10-16T01:00:26;14.50;99.90
46492;DHT22;32206;51.446;6.792;2022-10-16T01:02:56;14.50;99.90
46492;DHT22;32206;51.446;6.792;2022-10-16T01:05:25;14.50;99.90
46492;DHT22;32206;51.446;6.792;2022-10-16T01:08:23;14.30;99.90
46492;DHT22;32206;51.446;6.792;2022-10-16T01:11:11;14.60;99.90
46492;DHT22;32206;51.446;6.792;2022-10-16T01:13:43;14.50;99.90
46492;DHT22;32206;51.446;6.792;2022-10-16T01:16:16;14.60;99.90
46492;DHT22;32206;51.446;6.792;2022-10-16T01:18:46;14.50;99.90
46492;DHT22;32206;51.446;6.792;2022-10-16T01:21:29;14.50;99.90
46492;DHT22;32206;51.446;6.792;2022-10-16T01:24:06;14.50;99.90
46492;DHT22;32206;51.446;6.792;2022-10-16T01:29:52;14.40;99.90
46492;DHT22;32206;51.446;6.792;2022-10-16T01:34:48;14.40;99.90
46492;DHT22;32206;51.446;6.792;2022-10-16T01:37:20;14.40;99.90
46492;DHT22;32206;51.446;6.792;2022-10-16T01:39:47;14.50;99.90
46492;DHT22;32206;51.446;6.792;2022-10-16T01:42:20;14.40;99.90
46492;DHT22;32206;51.446;6.792;2022-10-16T01:44:48;14.40;99.90
46492;DHT22;32206;51.446;6.792;2022-10-16T01:47:15;14.40;99.90
46492;DHT22;32206;51.446;6.792;2022-10-16T01:49:43;14.40;99.90
46492;DHT22;32206;51.446;6.792;2022-10-16T01:52:14;14.40;99.90
46492;DHT22;32206;51.446;6.792;2022-10-16T01:54:43;14.40;99.90
46492;DHT22;32206;51.446;6.792;2022-10-16T01:57:12;14.40;99.90
46492;DHT22;32206;51.446;6.792;2022-10-16T01:59:44;14.60;99.90
46492;DHT22;32206;51.446;6.792;2022-10-16T02:02:10;14.50;99.90
46492;DHT22;32206;51.446;6.792;2022-10-16T02:04:46;14.30;99.90
46492;DHT22;32206;51.446;6.792;2022-10-16T02:07:13;14.30;99.90
46492;DHT22;32206;51.446;6.792;2022-10-16T02:09:39;14.50;99.90
46492;DHT22;32206;51.446;6.792;2022-10-16T02:12:28;14.30;99.90
46492;DHT22;32206;51.446;6.792;2022-10-16T02:14:55;14.30;99.90
46492;DHT22;32206;51.446;6.792;2022-10-16T02:17:21;14.20;99.90
46492;DHT22;32206;51.446;6.792;2022-10-16T02:19:48;14.20;99.90
46492;DHT22;32206;51.446;6.792;2022-10-16T02:22:27;14.20;99.90
46492;DHT22;32206;51.446;6.792;2022-10-16T02:25:25;14.20;99.90
46492;DHT22;32206;51.446;6.792;2022-10-16T02:28:02;14.30;99.90
46492;DHT22;32206;51.446;6.792;2022-10-16T02:30:42;14.30;99.90
46492;DHT22;32206;51.446;6.792;2022-10-16T02:33:11;14.30;99.90
46492;DHT22;32206;51.446;6.792;2022-10-16T02:35:40;14.30;99.90
46492;DHT22;32206;51.446;6.792;2022-10-16T02:38:08;14.30;99.90
46492;DHT22;32206;51.446;6.792;2022-10-16T02:40:34;14.30;99.90
46492;DHT22;32206;51.446;6.792;2022-10-16T02:43:00;14.40;99.90
46492;DHT22;32206;51.446;6.792;2022-10-16T02:45:28;14.40;99.90
46492;DHT22;32206;51.446;6.792;2022-10-16T02:47:54;14.30;99.90
46492;DHT22;32206;51.446;6.792;2022-10-16T02:50:20;14.30;99.90
46492;DHT22;32206;51.446;6.792;2022-10-16T02:52:46;14.30;99.90
46492;DHT22;32206;51.446;6.792;2022-10-16T02:55:11;14.30;99.90
46492;DHT22;32206;51.446;6.792;2022-10-16T02:57:37;14.30;99.90
46492;DHT22;32206;51.446;6.792;2022-10-16T03:00:09;14.50;99.90
46492;DHT22;32206;51.446;6.792;2022-10-16T03:02:35;14.30;99.90
46492;DHT22;32206;51.446;6.792;2022-10-16T03:05:00;14.20;99.90
46492;DHT22;32206;51.446;6.792;2022-10-16T03:07:26;14.20;99.90
46492;DHT22;32206;51.446;6.792;2022-10-16T03:09:52;14.20;99.90
46492;DHT22;32206;51.446;6.792;2022-10-16T03:12:17;14.20;99.90
46492;DHT22;32206;51.446;6.792;2022-10-16T03:14:43;14.20;99.90
46492;DHT22;32206;51.446;6.792;2022-10-16T03:17:08;14.60;99.90
46492;DHT22;32206;51.446;6.792;2022-10-16T03:19:34;14.30;99.90
46492;DHT22;32206;51.446;6.792;2022-10-16T03:22:01;14.30;99.90
46492;DHT22;32206;51.446;6.792;2022-10-16T03:24:26;14.30;99.90
46492;DHT22;32206;51.446;6.792;2022-10-16T03:26:52;14.30;99.90
46492;DHT22;32206;51.446;6.792;2022-10-16T03:29:17;14.30;99.90
46492;DHT22;32206;51.446;6.792;2022-10-16T03:31:43;14.40;99.90
46492;DHT22;32206;51.446;6.792;2022-10-16T03:34:09;14.40;99.90
46492;DHT22;32206;51.446;6.792;2022-10-16T03:36:34;14.30;99.90
46492;DHT22;32206;51.446;6.792;2022-10-16T03:39:00;14.40;99.90
46492;DHT22;32206;51.446;6.792;2022-10-16T03:41:25;14.40;99.90
46492;DHT22;32206;51.446;6.792;2022-10-16T03:43:51;14.40;99.90
46492;DHT22;32206;51.446;6.792;2022-10-16T03:46:17;14.40;99.90
46492;DHT22;32206;51.446;6.792;2022-10-16T03:48:42;14.40;99.90
46492;DHT22;32206;51.446;6.792;2022-10-16T03:51:08;14.30;99.90
46492;DHT22;32206;51.446;6.792;2022-10-16T03:53:33;14.40;99.90
46492;DHT22;32206;51.446;6.792;2022-10-16T03:55:59;14.40;99.90
46492;DHT22;32206;51.446;6.792;2022-10-16T03:58:25;14.40;99.90
46492;DHT22;32206;51.446;6.792;2022-10-16T04:00:51;14.30;99.90
46492;DHT22;32206;51.446;6.792;2022-10-16T04:03:16;14.30;99.90
46492;DHT22;32206;51.446;6.792;2022-10-16T04:05:44;14.30;99.90
46492;DHT22;32206;51.446;6.792;2022-10-16T04:08:10;14.30;99.90
46492;DHT22;32206;51.446;6.792;2022-10-16T04:10:35;14.30;99.90
46492;DHT22;32206;51.446;6.792;2022-10-16T04:13:01;14.40;99.90
46492;DHT22;32206;51.446;6.792;2022-10-16T04:15:26;14.80;99.90
46492;DHT22;32206;51.446;6.792;2022-10-16T04:17:52;14.40;99.90
46492;DHT22;32206;51.446;6.792;2022-10-16T04:20:18;14.40;99.90
46492;DHT22;32206;51.446;6.792;2022-10-16T04:22:44;14.40;99.90
46492;DHT22;32206;51.446;6.792;2022-10-16T04:25:10;14.40;99.90
46492;DHT22;32206;51.446;6.792;2022-10-16T04:27:37;14.40;99.90
46492;DHT22;32206;51.446;6.792;2022-10-16T04:30:03;14.40;99.90
46492;DHT22;32206;51.446;6.792;2022-10-16T04:32:29;14.30;99.90
46492;DHT22;32206;51.446;6.792;2022-10-16T04:34:55;14.40;99.90
46492;DHT22;32206;51.446;6.792;2022-10-16T04:37:25;14.40;99.90
46492;DHT22;32206;51.446;6.792;2022-10-16T04:39:51;14.40;99.90
46492;DHT22;32206;51.446;6.792;2022-10-16T04:42:17;14.30;99.90
46492;DHT22;32206;51.446;6.792;2022-10-16T04:44:42;14.30;99.90
46492;DHT22;32206;51.446;6.792;2022-10-16T04:47:08;14.30;99.90
46492;DHT22;32206;51.446;6.792;2022-10-16T04:49:33;14.30;99.90
46492;DHT22;32206;51.446;6.792;2022-10-16T04:51:59;14.30;99.90
46492;DHT22;32206;51.446;6.792;2022-10-16T04:54:25;14.30;99.90
46492;DHT22;32206;51.446;6.792;2022-10-16T04:56:50;14.40;99.90
46492;DHT22;32206;51.446;6.792;2022-10-16T04:59:18;14.30;99.90
46492;DHT22;32206;51.446;6.792;2022-10-16T05:01:44;14.30;99.90
46492;DHT22;32206;51.446;6.792;2022-10-16T05:04:11;14.20;99.90
46492;DHT22;32206;51.446;6.792;2022-10-16T05:06:37;14.20;99.90
46492;DHT22;32206;51.446;6.792;2022-10-16T05:09:07;14.20;99.90
46492;DHT22;32206;51.446;6.792;2022-10-16T05:11:33;14.20;99.90
46492;DHT22;32206;51.446;6.792;2022-10-16T05:13:59;14.20;99.90
46492;DHT22;32206;51.446;6.792;2022-10-16T05:16:24;14.20;99.90
46492;DHT22;32206;51.446;6.792;2022-10-16T05:18:51;14.40;99.90
46492;DHT22;32206;51.446;6.792;2022-10-16T05:21:17;14.20;99.90
46492;DHT22;32206;51.446;6.792;2022-10-16T05:23:42;14.20;99.90
46492;DHT22;32206;51.446;6.792;2022-10-16T05:26:08;14.10;99.90
46492;DHT22;32206;51.446;6.792;2022-10-16T05:28:34;14.10;99.90
46492;DHT22;32206;51.446;6.792;2022-10-16T05:31:07;14.10;99.90
46492;DHT22;32206;51.446;6.792;2022-10-16T05:33:33;14.10;99.90
46492;DHT22;32206;51.446;6.792;2022-10-16T05:36:07;14.10;99.90
46492;DHT22;32206;51.446;6.792;2022-10-16T05:38:33;14.10;99.90
46492;DHT22;32206;51.446;6.792;2022-10-16T05:40:59;14.10;99.90
46492;DHT22;32206;51.446;6.792;2022-10-16T05:43:26;14.10;99.90
46492;DHT22;32206;51.446;6.792;2022-10-16T05:45:56;14.10;99.90
46492;DHT22;32206;51.446;6.792;2022-10-16T05:48:22;14.10;99.90
46492;DHT22;32206;51.446;6.792;2022-10-16T05:50:48;14.10;99.90
46492;DHT22;32206;51.446;6.792;2022-10-16T05:53:14;14.10;99.90
46492;DHT22;32206;51.446;6.792;2022-10-16T05:55:39;14.10;99.90
46492;DHT22;32206;51.446;6.792;2022-10-16T05:58:05;14.00;99.90
46492;DHT22;32206;51.446;6.792;2022-10-16T06:00:30;14.10;99.90
46492;DHT22;32206;51.446;6.792;2022-10-16T06:02:56;14.10;99.90
46492;DHT22;32206;51.446;6.792;2022-10-16T06:05:21;14.50;99.90
46492;DHT22;32206;51.446;6.792;2022-10-16T06:07:47;14.10;99.90
46492;DHT22;32206;51.446;6.792;2022-10-16T06:10:13;14.10;99.90
46492;DHT22;32206;51.446;6.792;2022-10-16T06:12:38;14.40;99.90
46492;DHT22;32206;51.446;6.792;2022-10-16T06:15:04;14.10;99.90
46492;DHT22;32206;51.446;6.792;2022-10-16T06:17:29;14.10;99.90
46492;DHT22;32206;51.446;6.792;2022-10-16T06:19:55;14.10;99.90
46492;DHT22;32206;51.446;6.792;2022-10-16T06:22:21;14.10;99.90
46492;DHT22;32206;51.446;6.792;2022-10-16T06:24:46;14.10;99.90
46492;DHT22;32206;51.446;6.792;2022-10-16T06:27:12;14.20;99.90
46492;DHT22;32206;51.446;6.792;2022-10-16T06:29:38;14.30;99.90
46492;DHT22;32206;51.446;6.792;2022-10-16T06:32:04;14.10;99.90
46492;DHT22;32206;51.446;6.792;2022-10-16T06:34:29;14.10;99.90
46492;DHT22;32206;51.446;6.792;2022-10-16T06:36:55;14.00;99.90
46492;DHT22;32206;51.446;6.792;2022-10-16T06:39:21;14.10;99.90
46492;DHT22;32206;51.446;6.792;2022-10-16T06:41:46;14.10;99.90
46492;DHT22;32206;51.446;6.792;2022-10-16T06:44:12;14.10;99.90
46492;DHT22;32206;51.446;6.792;2022-10-16T06:46:37;14.00;99.90
46492;DHT22;32206;51.446;6.792;2022-10-16T06:49:03;14.10;99.90
46492;DHT22;32206;51.446;6.792;2022-10-16T06:51:29;14.20;99.90
46492;DHT22;32206;51.446;6.792;2022-10-16T06:53:55;14.10;99.90
46492;DHT22;32206;51.446;6.792;2022-10-16T06:56:26;14.10;99.90
46492;DHT22;32206;51.446;6.792;2022-10-16T06:58:52;14.20;99.90
46492;DHT22;32206;51.446;6.792;2022-10-16T07:01:20;14.20;99.90
46492;DHT22;32206;51.446;6.792;2022-10-16T07:03:47;14.20;99.90
46492;DHT22;32206;51.446;6.792;2022-10-16T07:06:17;14.20;99.90
46492;DHT22;32206;51.446;6.792;2022-10-16T07:08:45;14.50;99.90
46492;DHT22;32206;51.446;6.792;2022-10-16T07:11:14;14.20;99.90
46492;DHT22;32206;51.446;6.792;2022-10-16T07:13:41;14.20;99.90
46492;DHT22;32206;51.446;6.792;2022-10-16T07:16:12;14.20;99.90
46492;DHT22;32206;51.446;6.792;2022-10-16T07:18:39;14.30;99.90
46492;DHT22;32206;51.446;6.792;2022-10-16T07:23:34;14.20;99.90
46492;DHT22;32206;51.446;6.792;2022-10-16T07:26:00;14.30;99.90
46492;DHT22;32206;51.446;6.792;2022-10-16T07:28:25;14.30;99.90
46492;DHT22;32206;51.446;6.792;2022-10-16T07:30:51;14.30;99.90
46492;DHT22;32206;51.446;6.792;2022-10-16T07:33:17;14.30;99.90
46492;DHT22;32206;51.446;6.792;2022-10-16T07:35:53;14.30;99.90
46492;DHT22;32206;51.446;6.792;2022-10-16T07:38:20;14.30;99.90
46492;DHT22;32206;51.446;6.792;2022-10-16T07:40:46;14.40;99.90
46492;DHT22;32206;51.446;6.792;2022-10-16T07:43:13;14.40;99.90
46492;DHT22;32206;51.446;6.792;2022-10-16T07:45:49;14.50;99.90
46492;DHT22;32206;51.446;6.792;2022-10-16T07:48:16;14.40;99.90
46492;DHT22;32206;51.446;6.792;2022-10-16T07:50:42;14.50;99.90
46492;DHT22;32206;51.446;6.792;2022-10-16T07:53:08;14.60;99.90
46492;DHT22;32206;51.446;6.792;2022-10-16T07:55:34;14.80;99.90
46492;DHT22;32206;51.446;6.792;2022-10-16T07:58:00;14.60;99.90
46492;DHT22;32206;51.446;6.792;2022-10-16T08:00:25;14.70;99.90
46492;DHT22;32206;51.446;6.792;2022-10-16T08:02:54;14.70;99.90
46492;DHT22;32206;51.446;6.792;2022-10-16T08:05:20;14.80;99.90
46492;DHT22;32206;51.446;6.792;2022-10-16T08:07:49;14.90;99.90
46492;DHT22;32206;51.446;6.792;2022-10-16T08:10:19;14.90;99.90
46492;DHT22;32206;51.446;6.792;2022-10-16T08:12:45;15.00;99.90
46492;DHT22;32206;51.446;6.792;2022-10-16T08:15:11;15.00;99.90
46492;DHT22;32206;51.446;6.792;2022-10-16T08:17:37;15.10;99.90
46492;DHT22;32206;51.446;6.792;2022-10-16T08:20:03;15.20;99.90
46492;DHT22;32206;51.446;6.792;2022-10-16T08:22:29;15.20;99.90
46492;DHT22;32206;51.446;6.792;2022-10-16T08:24:54;15.20;99.90
46492;DHT22;32206;51.446;6.792;2022-10-16T08:27:20;15.30;99.90
46492;DHT22;32206;51.446;6.792;2022-10-16T08:29:46;15.40;99.30
46492;DHT22;32206;51.446;6.792;2022-10-16T08:32:11;15.50;99.10
46492;DHT22;32206;51.446;6.792;2022-10-16T08:34:37;15.50;98.60
46492;DHT22;32206;51.446;6.792;2022-10-16T08:37:02;15.60;97.10
46492;DHT22;32206;51.446;6.792;2022-10-16T08:39:28;15.70;96.40
46492;DHT22;32206;51.446;6.792;2022-10-16T08:42:11;15.70;95.90
46492;DHT22;32206;51.446;6.792;2022-10-16T08:45:12;15.80;96.20
46492;DHT22;32206;51.446;6.792;2022-10-16T08:50:27;15.80;96.80
46492;DHT22;32206;51.446;6.792;2022-10-16T08:52:54;15.90;96.20
46492;DHT22;32206;51.446;6.792;2022-10-16T08:55:43;16.00;95.80
46492;DHT22;32206;51.446;6.792;2022-10-16T08:58:18;16.00;95.80
46492;DHT22;32206;51.446;6.792;2022-10-16T09:00:47;16.10;95.90
46492;DHT22;32206;51.446;6.792;2022-10-16T09:20:34;16.60;91.60
46492;DHT22;32206;51.446;6.792;2022-10-16T09:25:30;16.70;89.60
46492;DHT22;32206;51.446;6.792;2022-10-16T09:27:56;16.70;87.60
46492;DHT22;32206;51.446;6.792;2022-10-16T09:30:22;16.80;88.70
46492;DHT22;32206;51.446;6.792;2022-10-16T09:32:52;16.80;90.50
46492;DHT22;32206;51.446;6.792;2022-10-16T09:38:04;16.90;84.80
46492;DHT22;32206;51.446;6.792;2022-10-16T09:40:42;17.00;84.30
46492;DHT22;32206;51.446;6.792;2022-10-16T09:46:07;17.10;85.00
46492;DHT22;32206;51.446;6.792;2022-10-16T09:48:38;17.20;80.10
46492;DHT22;32206;51.446;6.792;2022-10-16T09:51:13;17.40;76.00
46492;DHT22;32206;51.446;6.792;2022-10-16T09:53:45;17.40;74.40
46492;DHT22;32206;51.446;6.792;2022-10-16T09:56:21;17.40;71.20
46492;DHT22;32206;51.446;6.792;2022-10-16T09:58:51;17.70;72.70
46492;DHT22;32206;51.446;6.792;2022-10-16T10:01:19;17.40;75.40
46492;DHT22;32206;51.446;6.792;2022-10-16T10:03:45;17.50;79.10
46492;DHT22;32206;51.446;6.792;2022-10-16T10:11:43;17.80;63.90
46492;DHT22;32206;51.446;6.792;2022-10-16T10:16:47;17.80;60.80
46492;DHT22;32206;51.446;6.792;2022-10-16T10:19:18;17.90;59.10
46492;DHT22;32206;51.446;6.792;2022-10-16T10:21:45;17.90;59.80
46492;DHT22;32206;51.446;6.792;2022-10-16T10:24:16;18.00;55.90
46492;DHT22;32206;51.446;6.792;2022-10-16T10:35:54;18.50;43.30
46492;DHT22;32206;51.446;6.792;2022-10-16T10:37:57;18.60;32.30
46492;DHT22;32206;51.446;6.792;2022-10-16T10:43:26;18.70;28.80
46492;DHT22;32206;51.446;6.792;2022-10-16T10:46:03;18.80;22.90
46492;DHT22;32206;51.446;6.792;2022-10-16T10:59:52;19.70;1.00
46492;DHT22;32206;51.446;6.792;2022-10-16T11:05:33;20.20;1.00
46492;DHT22;32206;51.446;6.792;2022-10-16T11:11:00;20.70;1.00
46492;DHT22;32206;51.446;6.792;2022-10-16T11:13:35;20.90;1.00
46492;DHT22;32206;51.446;6.792;2022-10-16T11:16:09;21.10;99.90
46492;DHT22;32206;51.446;6.792;2022-10-16T11:19:20;21.20;1.00
46492;DHT22;32206;51.446;6.792;2022-10-16T11:21:56;21.50;1.00
46492;DHT22;32206;51.446;6.792;2022-10-16T11:27:10;21.80;1.00
46492;DHT22;32206;51.446;6.792;2022-10-16T11:29:49;21.70;99.90
46492;DHT22;32206;51.446;6.792;2022-10-16T11:32:26;21.90;99.90
46492;DHT22;32206;51.446;6.792;2022-10-16T11:35:02;22.30;99.90
46492;DHT22;32206;51.446;6.792;2022-10-16T11:37:36;22.70;76.80
46492;DHT22;32206;51.446;6.792;2022-10-16T11:40:24;23.00;99.90
46492;DHT22;32206;51.446;6.792;2022-10-16T11:43:04;23.10;99.90
46492;DHT22;32206;51.446;6.792;2022-10-16T11:45:38;23.10;99.90
46492;DHT22;32206;51.446;6.792;2022-10-16T11:50:50;22.80;99.90
46492;DHT22;32206;51.446;6.792;2022-10-16T11:55:47;22.40;1.00
46492;DHT22;32206;51.446;6.792;2022-10-16T11:58:34;22.20;99.90
46492;DHT22;32206;51.446;6.792;2022-10-16T12:04:09;21.90;1.00
46492;DHT22;32206;51.446;6.792;2022-10-16T12:07:07;21.90;99.90
46492;DHT22;32206;51.446;6.792;2022-10-16T12:09:37;22.10;1.00
46492;DHT22;32206;51.446;6.792;2022-10-16T12:12:04;22.20;99.90
46492;DHT22;32206;51.446;6.792;2022-10-16T12:20:02;22.80;1.00
46492;DHT22;32206;51.446;6.792;2022-10-16T12:23:02;23.10;1.00
46492;DHT22;32206;51.446;6.792;2022-10-16T12:25:36;23.10;1.00
46492;DHT22;32206;51.446;6.792;2022-10-16T12:28:26;23.10;1.00
46492;DHT22;32206;51.446;6.792;2022-10-16T12:30:55;23.00;99.90
46492;DHT22;32206;51.446;6.792;2022-10-16T12:33:24;23.00;1.00
46492;DHT22;32206;51.446;6.792;2022-10-16T12:35:51;23.00;1.00
46492;DHT22;32206;51.446;6.792;2022-10-16T12:38:20;23.00;99.90
46492;DHT22;32206;51.446;6.792;2022-10-16T12:40:59;23.00;99.90
46492;DHT22;32206;51.446;6.792;2022-10-16T12:43:28;23.00;1.00
46492;DHT22;32206;51.446;6.792;2022-10-16T12:48:26;23.00;96.60
46492;DHT22;32206;51.446;6.792;2022-10-16T12:50:52;23.10;99.90
46492;DHT22;32206;51.446;6.792;2022-10-16T12:53:25;23.20;1.00
46492;DHT22;32206;51.446;6.792;2022-10-16T12:56:26;23.20;99.90
46492;DHT22;32206;51.446;6.792;2022-10-16T13:01:56;23.30;10.50
46492;DHT22;32206;51.446;6.792;2022-10-16T13:04:56;23.40;90.90
46492;DHT22;32206;51.446;6.792;2022-10-16T13:07:40;23.50;99.90
46492;DHT22;32206;51.446;6.792;2022-10-16T13:10:30;23.60;99.90
46492;DHT22;32206;51.446;6.792;2022-10-16T13:13:41;23.60;99.90
46492;DHT22;32206;51.446;6.792;2022-10-16T13:23:37;24.40;99.90
46492;DHT22;32206;51.446;6.792;2022-10-16T13:26:31;24.50;39.80
46492;DHT22;32206;51.446;6.792;2022-10-16T13:29:00;24.50;99.90
46492;DHT22;32206;51.446;6.792;2022-10-16T13:31:28;24.50;1.00
46492;DHT22;32206;51.446;6.792;2022-10-16T13:33:56;24.60;40.00
46492;DHT22;32206;51.446;6.792;2022-10-16T13:36:28;24.60;11.50
46492;DHT22;32206;51.446;6.792;2022-10-16T13:39:14;24.50;1.00
46492;DHT22;32206;51.446;6.792;2022-10-16T13:41:42;24.20;99.90
46492;DHT22;32206;51.446;6.792;2022-10-16T13:44:23;24.00;1.00
46492;DHT22;32206;51.446;6.792;2022-10-16T13:47:01;23.80;1.00
46492;DHT22;32206;51.446;6.792;2022-10-16T13:49:27;23.70;99.90
46492;DHT22;32206;51.446;6.792;2022-10-16T13:51:59;23.60;99.90
46492;DHT22;32206;51.446;6.792;2022-10-16T13:54:27;23.50;1.00
46492;DHT22;32206;51.446;6.792;2022-10-16T13:56:54;23.70;22.70
46492;DHT22;32206;51.446;6.792;2022-10-16T13:59:24;23.30;99.90
46492;DHT22;32206;51.446;6.792;2022-10-16T14:01:53;23.20;99.90
46492;DHT22;32206;51.446;6.792;2022-10-16T14:04:19;23.10;1.00
46492;DHT22;32206;51.446;6.792;2022-10-16T14:06:48;23.00;1.00
46492;DHT22;32206;51.446;6.792;2022-10-16T14:09:22;22.90;99.90
46492;DHT22;32206;51.446;6.792;2022-10-16T14:11:50;22.80;99.90
46492;DHT22;32206;51.446;6.792;2022-10-16T14:14:18;22.70;58.80
46492;DHT22;32206;51.446;6.792;2022-10-16T14:16:44;22.50;99.90
46492;DHT22;32206;51.446;6.792;2022-10-16T14:19:23;22.40;99.90
46492;DHT22;32206;51.446;6.792;2022-10-16T14:21:51;22.20;99.90
46492;DHT22;32206;51.446;6.792;2022-10-16T14:24:33;22.10;1.00
46492;DHT22;32206;51.446;6.792;2022-10-16T14:27:00;21.90;1.00
46492;DHT22;32206;51.446;6.792;2022-10-16T14:29:28;21.90;1.00
46492;DHT22;32206;51.446;6.792;2022-10-16T14:32:05;21.80;99.90
46492;DHT22;32206;51.446;6.792;2022-10-16T14:34:38;21.70;88.50
46492;DHT22;32206;51.446;6.792;2022-10-16T14:37:26;21.60;99.90
46492;DHT22;32206;51.446;6.792;2022-10-16T14:39:52;21.50;1.00
46492;DHT22;32206;51.446;6.792;2022-10-16T14:42:20;21.50;99.90
46492;DHT22;32206;51.446;6.792;2022-10-16T14:44:50;21.30;99.90
46492;DHT22;32206;51.446;6.792;2022-10-16T14:47:20;21.30;99.90
46492;DHT22;32206;51.446;6.792;2022-10-16T14:49:50;21.10;99.90
46492;DHT22;32206;51.446;6.792;2022-10-16T14:52:16;21.10;1.00
46492;DHT22;32206;51.446;6.792;2022-10-16T14:54:41;21.00;36.00
46492;DHT22;32206;51.446;6.792;2022-10-16T14:57:17;21.00;51.20
46492;DHT22;32206;51.446;6.792;2022-10-16T14:59:44;20.90;28.50
46492;DHT22;32206;51.446;6.792;2022-10-16T15:04:57;20.80;99.90
46492;DHT22;32206;51.446;6.792;2022-10-16T15:07:24;21.00;1.00
46492;DHT22;32206;51.446;6.792;2022-10-16T15:09:50;20.80;24.90
46492;DHT22;32206;51.446;6.792;2022-10-16T15:12:16;20.70;99.90
46492;DHT22;32206;51.446;6.792;2022-10-16T15:14:42;20.60;99.90
46492;DHT22;32206;51.446;6.792;2022-10-16T15:17:10;20.60;99.90
46492;DHT22;32206;51.446;6.792;2022-10-16T15:19:36;20.60;99.90
46492;DHT22;32206;51.446;6.792;2022-10-16T15:22:01;20.60;99.90
46492;DHT22;32206;51.446;6.792;2022-10-16T15:24:27;20.50;99.90
46492;DHT22;32206;51.446;6.792;2022-10-16T15:26:52;20.50;99.90
46492;DHT22;32206;51.446;6.792;2022-10-16T15:29:18;20.40;1.00
46492;DHT22;32206;51.446;6.792;2022-10-16T15:31:44;20.40;99.90
46492;DHT22;32206;51.446;6.792;2022-10-16T15:34:10;20.40;99.90
46492;DHT22;32206;51.446;6.792;2022-10-16T15:36:38;20.40;1.00
46492;DHT22;32206;51.446;6.792;2022-10-16T15:39:04;20.40;1.00
46492;DHT22;32206;51.446;6.792;2022-10-16T15:41:30;20.40;1.00
46492;DHT22;32206;51.446;6.792;2022-10-16T15:43:56;20.30;1.00
46492;DHT22;32206;51.446;6.792;2022-10-16T15:46:23;20.40;1.00
46492;DHT22;32206;51.446;6.792;2022-10-16T15:48:49;20.20;1.00
46492;DHT22;32206;51.446;6.792;2022-10-16T15:51:16;20.20;1.00
46492;DHT22;32206;51.446;6.792;2022-10-16T15:53:42;20.20;1.00
46492;DHT22;32206;51.446;6.792;2022-10-16T15:56:09;20.10;1.00
46492;DHT22;32206;51.446;6.792;2022-10-16T15:58:36;20.10;1.00
46492;DHT22;32206;51.446;6.792;2022-10-16T16:01:03;20.10;1.00
46492;DHT22;32206;51.446;6.792;2022-10-16T16:03:30;20.10;1.00
46492;DHT22;32206;51.446;6.792;2022-10-16T16:05:56;20.00;1.00
46492;DHT22;32206;51.446;6.792;2022-10-16T16:08:22;19.90;1.00
46492;DHT22;32206;51.446;6.792;2022-10-16T16:11:05;19.90;1.00
46492;DHT22;32206;51.446;6.792;2022-10-16T16:13:31;19.80;4.70
46492;DHT22;32206;51.446;6.792;2022-10-16T16:15:57;19.80;11.10
46492;DHT22;32206;51.446;6.792;2022-10-16T16:18:23;19.80;17.40
46492;DHT22;32206;51.446;6.792;2022-10-16T16:20:50;19.70;18.40
46492;DHT22;32206;51.446;6.792;2022-10-16T16:23:15;19.70;19.00
46492;DHT22;32206;51.446;6.792;2022-10-16T16:25:41;19.70;20.50
46492;DHT22;32206;51.446;6.792;2022-10-16T16:28:07;19.60;24.90
46492;DHT22;32206;51.446;6.792;2022-10-16T16:30:35;19.60;23.80
46492;DHT22;32206;51.446;6.792;2022-10-16T16:33:01;19.50;24.30
46492;DHT22;32206;51.446;6.792;2022-10-16T16:35:27;19.50;24.60
46492;DHT22;32206;51.446;6.792;2022-10-16T16:37:52;19.40;27.80
46492;DHT22;32206;51.446;6.792;2022-10-16T16:40:18;19.40;29.10
46492;DHT22;32206;51.446;6.792;2022-10-16T16:42:43;19.30;32.50
46492;DHT22;32206;51.446;6.792;2022-10-16T16:45:09;19.30;31.40
46492;DHT22;32206;51.446;6.792;2022-10-16T16:47:35;19.30;34.20
46492;DHT22;32206;51.446;6.792;2022-10-16T16:50:00;19.20;38.40
46492;DHT22;32206;51.446;6.792;2022-10-16T16:52:30;19.20;43.00
46492;DHT22;32206;51.446;6.792;2022-10-16T16:54:55;19.10;42.10
46492;DHT22;32206;51.446;6.792;2022-10-16T16:57:21;19.00;42.00
46492;DHT22;32206;51.446;6.792;2022-10-16T16:59:49;19.00;42.50
46492;DHT22;32206;51.446;6.792;2022-10-16T17:02:15;19.00;37.70
46492;DHT22;32206;51.446;6.792;2022-10-16T17:04:40;18.90;46.40
46492;DHT22;32206;51.446;6.792;2022-10-16T17:07:06;18.90;44.40
46492;DHT22;32206;51.446;6.792;2022-10-16T17:09:33;18.80;44.40
46492;DHT22;32206;51.446;6.792;2022-10-16T17:11:58;18.80;44.10
46492;DHT22;32206;51.446;6.792;2022-10-16T17:14:24;18.70;41.20
46492;DHT22;32206;51.446;6.792;2022-10-16T17:16:51;18.80;47.60
46492;DHT22;32206;51.446;6.792;2022-10-16T17:19:19;18.80;49.20
46492;DHT22;32206;51.446;6.792;2022-10-16T17:21:47;18.70;49.90
46492;DHT22;32206;51.446;6.792;2022-10-16T17:24:13;18.70;44.60
46492;DHT22;32206;51.446;6.792;2022-10-16T17:26:38;18.70;50.50
46492;DHT22;32206;51.446;6.792;2022-10-16T17:29:11;18.60;47.80
46492;DHT22;32206;51.446;6.792;2022-10-16T17:31:36;18.60;49.20